• Join FlightAware (Why Join?)
  • Login
  • US Flag 
10:59AM EST


 

Airport Tracker/Info


-or-


 

Live Flight TrackerFlight Track Log ✈ N56578 ✈ 14-Sep-2013 ✈ KRDG - KTTN

Flight Track Log - Related Links

Times and Time Zones

All times are in EDT time to prevent confusion due to time zone crossing. See the N56578 flight status page for this flight to view local times or setup timezone preferences in your user account.

Time Position Orientation Groundspeed Altitude Reporting Facility
EDT Latitude Longitude Course Direction KTS MPH feet Rate Location/Type
01:14PM 40.3833 -75.7667 102° East 138 159 3,000  Level Philadelphia TRACON
01:14PM 40.3833 -75.7500 90° East 123 142 3,000 -120 Level Philadelphia TRACON
01:15PM 40.3833 -75.7000 90° East 112 129 2,900  Descending Philadelphia TRACON
01:16PM 40.3833 -75.6667 90° East 113 130 3,000  Climbing Philadelphia TRACON
01:17PM 40.3343 -75.4818 97° East  Level FlightAware Approximate
01:17PM 40.3833 -75.6167 90° East 123 142 3,000  Level Philadelphia TRACON
01:18PM 40.3303 -75.4334 90° East  Level Estimated
01:18PM 40.3833 -75.5833 90° East 125 144 2,900  Level Philadelphia TRACON
01:19PM 40.3262 -75.3850 102° East  Level Estimated
01:19PM 40.3667 -75.5333 114° Southeast 121 139 2,900  Level Philadelphia TRACON
01:20PM 40.3500 -75.4833 114° Southeast 124 143 2,900  Level Philadelphia TRACON
01:21PM 40.3500 -75.4500 90° East 116 133 3,000  Climbing Philadelphia TRACON
01:22PM 40.3333 -75.4167 123° Southeast 119 137 3,000  Level Philadelphia TRACON
01:23PM 40.3167 -75.3667 114° Southeast 121 139 3,000  Level Philadelphia TRACON
01:24PM 40.3000 -75.3333 123° Southeast 127 146 3,100  Climbing Philadelphia TRACON
01:25PM 40.2833 -75.3000 123° Southeast 122 140 3,000 -60 Descending Philadelphia TRACON
01:26PM 40.2833 -75.2500 90° East 124 143 3,000  Level Philadelphia TRACON
01:27PM 40.2667 -75.2167 123° Southeast 122 140 3,000 -60 Level Philadelphia TRACON
01:28PM 40.2667 -75.1667 90° East 123 142 2,900 -60 Descending Philadelphia TRACON
01:29PM 40.2500 -75.1167 114° Southeast 121 139 2,900  Level Philadelphia TRACON
01:30PM 40.2500 -75.0833 90° East 119 137 2,900 -60 Level Philadelphia TRACON
01:31PM 40.2500 -75.0333 90° East 122 140 2,800  Descending Philadelphia TRACON
01:32PM 40.2500 -75.0000 90° East 114 131 2,900 -60 Climbing Philadelphia TRACON
01:33PM 40.2500 -74.9500 90° East 117 135 2,700 -420 Descending Philadelphia TRACON
01:34PM 40.2667 -74.9167 57° Northeast 114 131 2,100 -660 Descending Philadelphia TRACON
01:35PM 40.2667 -74.8833 90° East 113 130 1,400 -540 Descending Philadelphia TRACON
01:36PM 40.2667 -74.8333 90° East 106 122 1,000 -180 Descending Philadelphia TRACON
01:37PM 40.2500 -74.8167 143° Southeast 98 113 1,100 60 Climbing Philadelphia TRACON
01:39PM 40.2667 -74.8000 102° East  Level FlightAware Approximate
01:46PM 40.2767 -74.8135 102° East  Level Estimated
01:47PM 40.2767 -74.8135 102° East  Level Estimated